createdAt,value
2023-08-15T00:00:56.892Z,25.77
2023-08-15T00:06:07.359Z,27.90
2023-08-15T00:11:10.476Z,28.27
2023-08-15T00:16:13.614Z,27.03
2023-08-15T00:21:16.768Z,26.21
2023-08-15T00:26:19.952Z,25.65
2023-08-15T00:31:23.209Z,25.20
2023-08-15T00:36:26.486Z,25.73
2023-08-15T00:41:32.345Z,27.88
2023-08-15T00:46:35.841Z,28.22
2023-08-15T00:51:39.348Z,26.94
2023-08-15T00:56:42.990Z,26.08
2023-08-15T01:01:46.660Z,25.46
2023-08-15T01:06:50.368Z,24.97
2023-08-15T01:12:33.793Z,25.46
2023-08-15T01:17:40.897Z,27.79
2023-08-15T01:22:47.482Z,27.68
2023-08-15T01:27:59.600Z,26.36
2023-08-15T01:33:13.360Z,25.59
2023-08-15T01:38:27.533Z,25.03
2023-08-15T01:43:32.490Z,24.56
2023-08-15T01:48:44.609Z,25.16
2023-08-15T01:53:47.896Z,27.42
2023-08-15T01:58:50.974Z,27.69
2023-08-15T02:03:54.226Z,26.37
2023-08-15T02:08:57.253Z,25.51
2023-08-15T02:14:00.430Z,24.94
2023-08-15T02:19:04.040Z,24.46
2023-08-15T02:24:07.429Z,25.07
2023-08-15T02:29:10.973Z,27.19
2023-08-15T02:34:14.336Z,27.44
2023-08-15T02:39:24.440Z,26.12
2023-08-15T02:44:28.675Z,25.26
2023-08-15T02:49:34.423Z,24.64
2023-08-15T02:54:37.718Z,24.13
2023-08-15T02:59:41.028Z,24.71
2023-08-15T03:04:44.188Z,26.87
2023-08-15T03:09:47.435Z,26.81
2023-08-15T03:14:50.559Z,25.51
2023-08-15T03:19:55.657Z,24.75
2023-08-15T03:24:59.646Z,24.18
2023-08-15T03:30:02.913Z,24.71
2023-08-15T03:35:07.604Z,26.80
2023-08-15T03:40:11.298Z,26.93
2023-08-15T03:45:15.527Z,25.59
2023-08-15T03:50:27.091Z,24.79
2023-08-15T03:55:33.302Z,24.22
2023-08-15T04:00:37.202Z,24.76
2023-08-15T04:05:40.784Z,26.94
2023-08-15T04:10:48.529Z,27.27
2023-08-15T04:15:53.969Z,25.88
2023-08-15T04:20:58.391Z,25.02
2023-08-15T04:26:01.835Z,24.47
2023-08-15T04:31:05.225Z,25.13
2023-08-15T04:36:08.654Z,27.24
2023-08-15T04:41:12.116Z,27.56
2023-08-15T04:46:15.673Z,26.27
2023-08-15T04:51:18.936Z,25.44
2023-08-15T04:56:25.086Z,24.88
2023-08-15T05:01:46.124Z,25.46
2023-08-15T05:06:49.512Z,27.67
2023-08-15T05:11:52.746Z,27.27
2023-08-15T05:16:56.709Z,26.16
2023-08-15T05:22:01.591Z,25.50
2023-08-15T05:27:05.920Z,25.07
2023-08-15T05:32:09.539Z,25.70
2023-08-15T05:37:12.870Z,27.86
2023-08-15T05:42:19.172Z,28.34
2023-08-15T05:47:22.950Z,27.20
2023-08-15T05:52:27.868Z,26.52
2023-08-15T05:57:31.032Z,26.08
2023-08-15T06:02:36.571Z,26.66
2023-08-15T06:07:39.909Z,28.61
2023-08-15T06:12:43.003Z,27.88
2023-08-15T06:17:46.324Z,27.04
2023-08-15T06:22:58.745Z,26.59
2023-08-15T06:28:02.556Z,26.28
2023-08-15T06:33:05.918Z,26.00
2023-08-15T06:38:09.072Z,25.79
2023-08-15T06:43:12.290Z,25.67
2023-08-15T06:48:16.178Z,25.58
2023-08-15T06:53:20.006Z,25.53
2023-08-15T06:58:23.805Z,25.51
2023-08-15T07:03:27.308Z,25.50
2023-08-15T07:08:30.688Z,25.51
2023-08-15T07:13:33.984Z,25.54
2023-08-15T07:18:37.326Z,25.59
2023-08-15T07:23:41.658Z,25.63
2023-08-15T07:33:39.128Z,25.76
2023-08-15T07:38:42.560Z,25.83
2023-08-15T07:43:46.285Z,25.93
2023-08-15T07:48:49.767Z,26.04
2023-08-15T07:53:56.622Z,26.15
2023-08-15T07:59:04.563Z,26.26
2023-08-15T08:04:10.739Z,26.35
2023-08-15T08:09:15.157Z,26.44
2023-08-15T08:14:18.559Z,26.53
2023-08-15T08:19:25.838Z,26.63
2023-08-15T08:24:30.273Z,26.72
2023-08-15T08:29:33.655Z,26.85
2023-08-15T08:34:40.923Z,26.97
2023-08-15T08:39:45.053Z,27.07
2023-08-15T08:44:49.510Z,27.16
2023-08-15T08:49:55.423Z,27.27
2023-08-15T08:55:00.528Z,27.41
2023-08-15T09:00:16.664Z,27.56
2023-08-15T09:05:23.366Z,27.70
2023-08-15T09:10:31.388Z,27.82
2023-08-15T09:15:35.620Z,27.95
2023-08-15T09:20:48.154Z,28.06
2023-08-15T09:25:57.527Z,28.19
2023-08-15T09:31:05.983Z,28.30
2023-08-15T09:36:10.821Z,28.40
2023-08-15T09:41:14.588Z,28.52
2023-08-15T09:46:20.073Z,28.66
2023-08-15T09:51:25.443Z,28.79
2023-08-15T09:56:28.689Z,28.92
2023-08-15T10:01:32.503Z,29.02
2023-08-15T10:06:35.796Z,29.11
2023-08-15T10:11:45.403Z,29.20
2023-08-15T10:16:49.578Z,29.40
2023-08-15T10:21:54.400Z,29.62
2023-08-15T12:45:30.682Z,31.67
2023-08-15T12:50:34.210Z,31.75
2023-08-15T12:55:37.348Z,31.83
2023-08-15T13:00:42.906Z,31.93
2023-08-15T13:05:50.594Z,31.99
2023-08-15T13:10:54.193Z,32.05
2023-08-15T13:15:57.556Z,32.12
2023-08-15T13:21:00.853Z,32.22
2023-08-15T13:26:04.168Z,32.33
2023-08-15T13:31:07.341Z,32.41
2023-08-15T13:36:24.280Z,32.45
2023-08-15T13:41:39.910Z,32.47
2023-08-15T13:46:46.602Z,32.53
2023-08-15T13:51:50.075Z,32.58
2023-08-15T13:56:55.633Z,32.55
2023-08-15T14:01:59.330Z,32.65
2023-08-15T14:07:02.525Z,32.76
2023-08-15T14:12:06.003Z,32.90
2023-08-15T14:17:09.423Z,33.06
2023-08-15T14:22:12.854Z,33.20
2023-08-15T14:27:18.282Z,33.29
2023-08-15T14:32:25.869Z,33.34
2023-08-15T14:37:29.369Z,33.35
2023-08-15T14:42:32.808Z,33.27
2023-08-15T14:47:36.502Z,33.11
2023-08-15T14:52:43.571Z,32.90
2023-08-15T15:27:09.993Z,31.71
2023-08-15T15:32:13.406Z,31.59
2023-08-15T15:37:16.811Z,31.47
2023-08-15T15:42:20.505Z,31.37
2023-08-15T15:47:24.286Z,31.24
2023-08-15T15:52:27.693Z,31.15
2023-08-15T15:57:31.051Z,31.06
2023-08-15T16:02:34.238Z,30.96
2023-08-15T16:07:37.675Z,30.87
2023-08-15T16:12:41.016Z,30.84
2023-08-15T16:17:46.182Z,30.83
2023-08-15T16:22:49.320Z,30.77
2023-08-15T16:27:52.739Z,30.71
2023-08-15T16:32:55.985Z,30.63
2023-08-15T16:37:59.355Z,30.54
2023-08-15T16:43:13.406Z,30.44
2023-08-15T16:48:16.698Z,30.34
2023-08-15T16:53:20.116Z,30.24
2023-08-15T16:58:23.611Z,30.15
2023-08-15T17:03:27.030Z,30.05
2023-08-15T17:08:30.582Z,29.95
2023-08-15T17:13:33.749Z,29.87
2023-08-15T17:18:36.832Z,29.77
2023-08-15T17:23:41.288Z,29.69
2023-08-15T17:28:52.837Z,29.63
2023-08-15T17:33:56.187Z,29.54
2023-08-15T17:38:59.395Z,29.46
2023-08-15T17:44:02.761Z,29.38
2023-08-15T17:49:05.826Z,29.29
2023-08-15T17:54:10.643Z,29.22
2023-08-15T17:59:35.199Z,29.14
2023-08-15T18:04:38.289Z,29.06
2023-08-15T18:09:41.706Z,28.98
2023-08-15T18:14:45.191Z,28.90
2023-08-15T18:19:50.595Z,28.79
2023-08-15T18:24:53.883Z,28.67
2023-08-15T18:29:57.444Z,28.55
2023-08-15T18:35:00.766Z,28.44
2023-08-15T18:40:05.034Z,28.34
2023-08-15T18:45:10.155Z,28.25
2023-08-15T18:50:13.383Z,28.14
2023-08-15T18:55:16.657Z,28.03
2023-08-15T19:00:21.921Z,27.93
2023-08-15T19:05:25.467Z,27.88
2023-08-15T19:10:28.811Z,27.81
2023-08-15T19:15:32.199Z,27.73
2023-08-15T19:20:35.524Z,27.66
2023-08-15T19:25:38.835Z,27.59
2023-08-15T19:30:43.859Z,27.53
2023-08-15T19:35:48.182Z,27.46
2023-08-15T19:40:51.636Z,27.40
2023-08-15T19:45:57.400Z,27.33
2023-08-15T19:51:00.564Z,27.25
2023-08-15T19:56:04.038Z,27.18
2023-08-15T20:01:07.322Z,27.10
2023-08-15T20:06:10.409Z,27.02
2023-08-15T20:11:14.462Z,26.93
2023-08-15T20:16:17.780Z,26.85
2023-08-15T20:21:21.411Z,26.78
2023-08-15T20:26:25.051Z,26.70
2023-08-15T20:31:28.514Z,26.63
2023-08-15T20:36:32.193Z,26.56
2023-08-15T20:41:35.446Z,26.50
2023-08-15T20:46:41.521Z,26.44
2023-08-15T20:51:45.021Z,26.38
2023-08-15T20:56:48.500Z,26.31
2023-08-15T21:01:51.948Z,26.25
2023-08-15T21:06:55.201Z,26.19
2023-08-15T21:11:58.263Z,26.12
2023-08-15T21:17:02.945Z,26.05
2023-08-15T21:27:12.655Z,25.91
2023-08-15T21:32:15.860Z,25.85
2023-08-15T21:37:18.990Z,25.79
2023-08-15T21:42:22.318Z,25.73
2023-08-15T21:47:25.661Z,25.67
2023-08-15T21:52:28.792Z,25.61
2023-08-15T21:57:32.148Z,25.55
2023-08-15T22:02:35.287Z,25.50
2023-08-15T22:07:38.432Z,25.45
2023-08-15T22:12:44.006Z,26.27
2023-08-15T22:17:54.591Z,28.69
2023-08-15T22:23:04.691Z,29.12
2023-08-15T22:28:07.893Z,28.03
2023-08-15T22:33:11.032Z,27.40
2023-08-15T22:38:14.233Z,26.98
2023-08-15T22:43:17.748Z,26.64
2023-08-15T22:48:22.972Z,26.34
2023-08-15T22:53:26.271Z,26.07
2023-08-15T22:58:29.776Z,25.84
2023-08-15T23:25:57.124Z,27.45
2023-08-15T23:31:00.353Z,26.82
2023-08-15T23:36:03.978Z,26.43
2023-08-15T23:41:07.102Z,26.13
2023-08-15T23:46:10.479Z,25.84
2023-08-15T23:51:13.874Z,25.60
2023-08-15T23:56:17.047Z,25.40
